This is the latest recevied weather packets stored in our database for station/object KF0TNT. If no packets are shown the sender has not sent any weather packets the latest 10 day(s).
| Time | Temp. | Humidity | Pressure | Rain* | Wind** | Luminosity | Snow |
|---|---|---|---|---|---|---|---|
| 1777497852 | 7.78° C | 71% | 1020.5 hPa | 0 mm | - | 564 W/m² | - |
| 1777497548 | 7.22° C | 74% | 1020.4 hPa | 0 mm | - | 349 W/m² | - |
| 1777497244 | 7.22° C | 74% | 1020 hPa | 0 mm | - | 259 W/m² | - |
| 1777496941 | 6.67° C | 77% | 1020.4 hPa | 0 mm | - | 454 W/m² | - |
| 1777496638 | 6.67° C | 79% | 1020.1 hPa | 0 mm | - | 1082 W/m² | - |
| 1777496334 | 6.11° C | 79% | 1020.5 hPa | 0 mm | - | 384 W/m² | - |
| 1777496030 | 6.67° C | 83% | 1020.4 hPa | 0 mm | - | 315 W/m² | - |
| 1777495726 | 6.11° C | 85% | 1020.1 hPa | 0.51 mm | - | 1070 W/m² | - |
| 1777495423 | 5.56° C | 82% | 1020.5 hPa | 1.27 mm | - | 380 W/m² | - |
| 1777495119 | 5.56° C | 81% | 1020.9 hPa | 1.27 mm | - | 320 W/m² | - |
| 1777494816 | 5.56° C | 84% | 1020.7 hPa | 0.51 mm | - | 301 W/m² | - |
| 1777494513 | 5.56° C | 86% | 1020.6 hPa | 0.51 mm | - | 362 W/m² | - |
| 1777494211 | 5° C | 86% | 1020.9 hPa | 0.51 mm | - | 423 W/m² | - |
| 1777493907 | 5° C | 86% | 1020.9 hPa | 0.51 mm | - | 464 W/m² | - |
| 1777493606 | 4.44° C | 89% | 1021.1 hPa | 0.51 mm | - | 367 W/m² | - |
| 1777493303 | 3.89° C | 93% | 1020.6 hPa | 0.51 mm | - | 587 W/m² | - |
| 1777492999 | 3.89° C | 93% | 1020.6 hPa | 0 mm | - | 297 W/m² | - |
| 1777492696 | 3.33° C | 91% | 1021 hPa | 0 mm | - | 151 W/m² | - |
| 1777492396 | 3.33° C | 90% | 1021.2 hPa | 0.51 mm | - | 101 W/m² | - |
| 1777492094 | 3.89° C | 91% | 1021.1 hPa | 0.51 mm | - | 98 W/m² | - |
| 1777491791 | 3.89° C | 90% | 1021 hPa | 0.51 mm | - | 154 W/m² | - |
| 1777491487 | 3.89° C | 90% | 1021.1 hPa | 1.27 mm | - | 128 W/m² | - |
| 1777491185 | 3.89° C | 91% | 1020.9 hPa | 1.27 mm | - | 96 W/m² | - |
| 1777490880 | 3.89° C | 91% | 1021 hPa | 1.78 mm | - | 99 W/m² | - |
| 1777490576 | 3.89° C | 89% | 1021.1 hPa | 1.27 mm | - | 80 W/m² | - |
* Rain latest hour (hover to see other rain measurements)
** Current wind speed in m/s (hover to see current wind gust speed)